sensor_id;sensor_type;location;lat;lon;timestamp;P1;durP1;ratioP1;P2;durP2;ratioP2
10244;SDS011;5167;52.164;10.530;2023-04-01T00:00:54;3.38;;;1.35;;
10244;SDS011;5167;52.164;10.530;2023-04-01T00:03:21;1.45;;;1.00;;
10244;SDS011;5167;52.164;10.530;2023-04-01T00:05:47;3.25;;;1.25;;
10244;SDS011;5167;52.164;10.530;2023-04-01T00:08:13;7.78;;;1.55;;
10244;SDS011;5167;52.164;10.530;2023-04-01T00:10:39;4.05;;;1.30;;
10244;SDS011;5167;52.164;10.530;2023-04-01T00:13:04;3.75;;;1.30;;
10244;SDS011;5167;52.164;10.530;2023-04-01T00:15:30;3.60;;;1.38;;
10244;SDS011;5167;52.164;10.530;2023-04-01T00:17:55;2.92;;;1.23;;
10244;SDS011;5167;52.164;10.530;2023-04-01T00:20:21;6.72;;;1.00;;
10244;SDS011;5167;52.164;10.530;2023-04-01T00:22:47;0.80;;;0.80;;
10244;SDS011;5167;52.164;10.530;2023-04-01T00:25:13;2.60;;;1.27;;
10244;SDS011;5167;52.164;10.530;2023-04-01T00:27:39;1.23;;;0.98;;
10244;SDS011;5167;52.164;10.530;2023-04-01T00:30:05;2.53;;;1.30;;
10244;SDS011;5167;52.164;10.530;2023-04-01T00:32:31;2.35;;;1.10;;
10244;SDS011;5167;52.164;10.530;2023-04-01T00:34:57;2.13;;;1.00;;
10244;SDS011;5167;52.164;10.530;2023-04-01T00:37:24;2.83;;;0.90;;
10244;SDS011;5167;52.164;10.530;2023-04-01T00:39:50;1.40;;;0.90;;
10244;SDS011;5167;52.164;10.530;2023-04-01T00:42:16;1.60;;;0.73;;
10244;SDS011;5167;52.164;10.530;2023-04-01T00:44:42;1.80;;;0.80;;
10244;SDS011;5167;52.164;10.530;2023-04-01T00:47:10;3.58;;;0.77;;
10244;SDS011;5167;52.164;10.530;2023-04-01T00:49:37;2.88;;;1.00;;
10244;SDS011;5167;52.164;10.530;2023-04-01T00:52:05;1.48;;;0.90;;
10244;SDS011;5167;52.164;10.530;2023-04-01T00:54:33;2.38;;;0.77;;
10244;SDS011;5167;52.164;10.530;2023-04-01T00:57:10;2.17;;;1.00;;
10244;SDS011;5167;52.164;10.530;2023-04-01T00:59:40;1.08;;;0.70;;
10244;SDS011;5167;52.164;10.530;2023-04-01T01:02:08;3.70;;;1.00;;
10244;SDS011;5167;52.164;10.530;2023-04-01T01:04:36;2.17;;;1.23;;
10244;SDS011;5167;52.164;10.530;2023-04-01T01:15:32;2.92;;;1.17;;
10244;SDS011;5167;52.164;10.530;2023-04-01T01:18:24;3.00;;;1.20;;
10244;SDS011;5167;52.164;10.530;2023-04-01T01:32:18;1.40;;;0.75;;
10244;SDS011;5167;52.164;10.530;2023-04-01T01:37:51;1.85;;;0.93;;
10244;SDS011;5167;52.164;10.530;2023-04-01T01:40:21;2.13;;;0.85;;
10244;SDS011;5167;52.164;10.530;2023-04-01T01:42:50;2.42;;;1.10;;
10244;SDS011;5167;52.164;10.530;2023-04-01T01:45:20;2.28;;;1.33;;
10244;SDS011;5167;52.164;10.530;2023-04-01T01:47:48;1.50;;;0.90;;
10244;SDS011;5167;52.164;10.530;2023-04-01T01:50:15;1.95;;;0.88;;
10244;SDS011;5167;52.164;10.530;2023-04-01T01:52:42;1.40;;;1.00;;
10244;SDS011;5167;52.164;10.530;2023-04-01T01:55:25;0.80;;;0.80;;
10244;SDS011;5167;52.164;10.530;2023-04-01T01:57:57;1.02;;;0.85;;
10244;SDS011;5167;52.164;10.530;2023-04-01T02:00:27;1.05;;;1.00;;
10244;SDS011;5167;52.164;10.530;2023-04-01T02:02:53;5.05;;;1.40;;
10244;SDS011;5167;52.164;10.530;2023-04-01T02:05:21;1.73;;;0.80;;
10244;SDS011;5167;52.164;10.530;2023-04-01T02:07:51;3.55;;;1.23;;
10244;SDS011;5167;52.164;10.530;2023-04-01T02:10:31;1.85;;;1.00;;
10244;SDS011;5167;52.164;10.530;2023-04-01T02:12:59;1.70;;;0.95;;
10244;SDS011;5167;52.164;10.530;2023-04-01T02:15:31;2.78;;;0.88;;
10244;SDS011;5167;52.164;10.530;2023-04-01T02:18:02;2.38;;;1.35;;
10244;SDS011;5167;52.164;10.530;2023-04-01T02:20:29;1.65;;;1.55;;
10244;SDS011;5167;52.164;10.530;2023-04-01T02:22:55;2.05;;;0.93;;
10244;SDS011;5167;52.164;10.530;2023-04-01T02:25:26;2.65;;;0.95;;
10244;SDS011;5167;52.164;10.530;2023-04-01T02:27:54;3.08;;;1.10;;
10244;SDS011;5167;52.164;10.530;2023-04-01T02:30:23;2.20;;;1.10;;
10244;SDS011;5167;52.164;10.530;2023-04-01T02:32:50;5.43;;;1.08;;
10244;SDS011;5167;52.164;10.530;2023-04-01T02:35:16;1.00;;;0.80;;
10244;SDS011;5167;52.164;10.530;2023-04-01T02:37:43;1.75;;;1.10;;
10244;SDS011;5167;52.164;10.530;2023-04-01T02:40:14;1.42;;;1.00;;
10244;SDS011;5167;52.164;10.530;2023-04-01T02:42:40;1.73;;;1.20;;
10244;SDS011;5167;52.164;10.530;2023-04-01T02:45:06;1.52;;;1.00;;
10244;SDS011;5167;52.164;10.530;2023-04-01T02:47:32;2.88;;;0.93;;
10244;SDS011;5167;52.164;10.530;2023-04-01T02:49:57;1.67;;;1.00;;
10244;SDS011;5167;52.164;10.530;2023-04-01T02:52:32;1.85;;;0.95;;
10244;SDS011;5167;52.164;10.530;2023-04-01T02:54:58;1.60;;;0.73;;
10244;SDS011;5167;52.164;10.530;2023-04-01T02:57:24;1.15;;;0.90;;
10244;SDS011;5167;52.164;10.530;2023-04-01T02:59:50;1.45;;;0.95;;
10244;SDS011;5167;52.164;10.530;2023-04-01T03:02:15;1.48;;;0.80;;
10244;SDS011;5167;52.164;10.530;2023-04-01T03:04:41;1.17;;;1.00;;
10244;SDS011;5167;52.164;10.530;2023-04-01T03:07:07;2.22;;;0.95;;
10244;SDS011;5167;52.164;10.530;2023-04-01T03:09:34;4.03;;;1.02;;
10244;SDS011;5167;52.164;10.530;2023-04-01T03:12:00;1.35;;;1.00;;
10244;SDS011;5167;52.164;10.530;2023-04-01T03:14:26;2.50;;;1.10;;
10244;SDS011;5167;52.164;10.530;2023-04-01T03:16:52;1.08;;;0.90;;
10244;SDS011;5167;52.164;10.530;2023-04-01T03:19:17;2.78;;;1.10;;
10244;SDS011;5167;52.164;10.530;2023-04-01T03:21:43;1.85;;;1.40;;
10244;SDS011;5167;52.164;10.530;2023-04-01T03:24:08;1.35;;;0.95;;
10244;SDS011;5167;52.164;10.530;2023-04-01T03:26:34;1.70;;;1.00;;
10244;SDS011;5167;52.164;10.530;2023-04-01T03:28:59;1.20;;;1.02;;
10244;SDS011;5167;52.164;10.530;2023-04-01T03:31:25;2.65;;;1.40;;
10244;SDS011;5167;52.164;10.530;2023-04-01T03:33:50;2.70;;;0.80;;
10244;SDS011;5167;52.164;10.530;2023-04-01T03:36:16;2.17;;;1.23;;
10244;SDS011;5167;52.164;10.530;2023-04-01T03:38:42;1.50;;;0.80;;
10244;SDS011;5167;52.164;10.530;2023-04-01T03:41:13;1.13;;;0.77;;
10244;SDS011;5167;52.164;10.530;2023-04-01T03:43:39;3.25;;;0.90;;
10244;SDS011;5167;52.164;10.530;2023-04-01T03:46:05;3.60;;;1.05;;
10244;SDS011;5167;52.164;10.530;2023-04-01T03:48:31;2.05;;;1.30;;
10244;SDS011;5167;52.164;10.530;2023-04-01T03:50:56;1.35;;;1.20;;
10244;SDS011;5167;52.164;10.530;2023-04-01T03:53:22;0.90;;;0.90;;
10244;SDS011;5167;52.164;10.530;2023-04-01T03:55:47;1.52;;;0.90;;
10244;SDS011;5167;52.164;10.530;2023-04-01T03:58:13;1.92;;;1.30;;
10244;SDS011;5167;52.164;10.530;2023-04-01T04:00:39;1.67;;;0.90;;
10244;SDS011;5167;52.164;10.530;2023-04-01T04:03:05;0.90;;;0.90;;
10244;SDS011;5167;52.164;10.530;2023-04-01T04:05:31;2.13;;;0.70;;
10244;SDS011;5167;52.164;10.530;2023-04-01T04:07:57;4.15;;;0.95;;
10244;SDS011;5167;52.164;10.530;2023-04-01T04:10:22;1.10;;;0.90;;
10244;SDS011;5167;52.164;10.530;2023-04-01T04:12:50;5.38;;;0.90;;
10244;SDS011;5167;52.164;10.530;2023-04-01T04:15:16;2.03;;;1.13;;
10244;SDS011;5167;52.164;10.530;2023-04-01T04:17:42;2.47;;;1.13;;
10244;SDS011;5167;52.164;10.530;2023-04-01T04:20:08;7.00;;;1.10;;
10244;SDS011;5167;52.164;10.530;2023-04-01T04:22:34;3.78;;;0.90;;
10244;SDS011;5167;52.164;10.530;2023-04-01T04:24:59;1.67;;;0.75;;
10244;SDS011;5167;52.164;10.530;2023-04-01T04:27:25;1.02;;;0.80;;
10244;SDS011;5167;52.164;10.530;2023-04-01T04:29:50;1.75;;;0.90;;
10244;SDS011;5167;52.164;10.530;2023-04-01T04:32:16;0.80;;;0.80;;
10244;SDS011;5167;52.164;10.530;2023-04-01T04:34:42;4.72;;;0.90;;
10244;SDS011;5167;52.164;10.530;2023-04-01T04:37:07;1.10;;;1.02;;
10244;SDS011;5167;52.164;10.530;2023-04-01T04:39:33;4.32;;;0.88;;
10244;SDS011;5167;52.164;10.530;2023-04-01T04:41:58;2.05;;;1.00;;
10244;SDS011;5167;52.164;10.530;2023-04-01T04:44:24;4.27;;;0.80;;
10244;SDS011;5167;52.164;10.530;2023-04-01T04:46:49;1.98;;;1.02;;
10244;SDS011;5167;52.164;10.530;2023-04-01T04:49:15;2.70;;;0.80;;
10244;SDS011;5167;52.164;10.530;2023-04-01T04:51:40;2.53;;;0.98;;
10244;SDS011;5167;52.164;10.530;2023-04-01T04:54:06;5.90;;;1.13;;
10244;SDS011;5167;52.164;10.530;2023-04-01T04:56:32;0.90;;;0.90;;
10244;SDS011;5167;52.164;10.530;2023-04-01T04:58:57;1.85;;;0.80;;
10244;SDS011;5167;52.164;10.530;2023-04-01T05:01:23;4.03;;;0.90;;
10244;SDS011;5167;52.164;10.530;2023-04-01T05:03:50;2.25;;;0.90;;
10244;SDS011;5167;52.164;10.530;2023-04-01T05:06:16;3.67;;;1.00;;
10244;SDS011;5167;52.164;10.530;2023-04-01T05:08:42;0.70;;;0.70;;
10244;SDS011;5167;52.164;10.530;2023-04-01T05:11:09;1.15;;;0.80;;
10244;SDS011;5167;52.164;10.530;2023-04-01T05:13:38;1.42;;;1.02;;
10244;SDS011;5167;52.164;10.530;2023-04-01T05:16:03;2.10;;;1.10;;
10244;SDS011;5167;52.164;10.530;2023-04-01T05:18:32;0.70;;;0.70;;
10244;SDS011;5167;52.164;10.530;2023-04-01T05:20:58;2.95;;;1.58;;
10244;SDS011;5167;52.164;10.530;2023-04-01T05:23:24;2.03;;;0.90;;
10244;SDS011;5167;52.164;10.530;2023-04-01T05:25:49;2.33;;;0.90;;
10244;SDS011;5167;52.164;10.530;2023-04-01T05:28:17;1.95;;;0.98;;
10244;SDS011;5167;52.164;10.530;2023-04-01T05:30:44;1.08;;;0.82;;
10244;SDS011;5167;52.164;10.530;2023-04-01T05:33:11;0.80;;;0.80;;
10244;SDS011;5167;52.164;10.530;2023-04-01T05:35:37;1.87;;;0.87;;
10244;SDS011;5167;52.164;10.530;2023-04-01T05:38:03;2.47;;;0.82;;
10244;SDS011;5167;52.164;10.530;2023-04-01T05:40:29;2.50;;;1.13;;
10244;SDS011;5167;52.164;10.530;2023-04-01T05:42:55;1.42;;;0.75;;
10244;SDS011;5167;52.164;10.530;2023-04-01T05:45:21;0.90;;;0.90;;
10244;SDS011;5167;52.164;10.530;2023-04-01T05:47:47;1.88;;;1.35;;
10244;SDS011;5167;52.164;10.530;2023-04-01T05:50:12;2.10;;;0.80;;
10244;SDS011;5167;52.164;10.530;2023-04-01T05:52:38;0.82;;;0.82;;
10244;SDS011;5167;52.164;10.530;2023-04-01T05:55:04;1.92;;;1.10;;
10244;SDS011;5167;52.164;10.530;2023-04-01T05:57:31;1.40;;;1.25;;
10244;SDS011;5167;52.164;10.530;2023-04-01T05:59:57;1.45;;;1.10;;
10244;SDS011;5167;52.164;10.530;2023-04-01T06:02:22;1.10;;;1.00;;
10244;SDS011;5167;52.164;10.530;2023-04-01T06:04:48;1.20;;;0.90;;
10244;SDS011;5167;52.164;10.530;2023-04-01T06:07:15;2.00;;;0.93;;
10244;SDS011;5167;52.164;10.530;2023-04-01T06:09:42;1.30;;;0.80;;
10244;SDS011;5167;52.164;10.530;2023-04-01T06:14:57;1.50;;;1.15;;
10244;SDS011;5167;52.164;10.530;2023-04-01T06:20:24;1.38;;;1.10;;
10244;SDS011;5167;52.164;10.530;2023-04-01T06:23:02;1.75;;;1.63;;
10244;SDS011;5167;52.164;10.530;2023-04-01T06:25:42;1.35;;;1.08;;
10244;SDS011;5167;52.164;10.530;2023-04-01T06:37:22;1.73;;;1.13;;
10244;SDS011;5167;52.164;10.530;2023-04-01T06:51:00;4.72;;;1.02;;
10244;SDS011;5167;52.164;10.530;2023-04-01T06:54:03;3.90;;;1.00;;
10244;SDS011;5167;52.164;10.530;2023-04-01T06:56:46;1.10;;;1.00;;
10244;SDS011;5167;52.164;10.530;2023-04-01T06:59:17;2.05;;;1.00;;
10244;SDS011;5167;52.164;10.530;2023-04-01T07:01:52;3.25;;;1.20;;
10244;SDS011;5167;52.164;10.530;2023-04-01T07:04:26;1.25;;;1.00;;
10244;SDS011;5167;52.164;10.530;2023-04-01T07:07:19;0.85;;;0.73;;
10244;SDS011;5167;52.164;10.530;2023-04-01T07:09:52;2.40;;;1.00;;
10244;SDS011;5167;52.164;10.530;2023-04-01T07:15:19;2.33;;;1.50;;
10244;SDS011;5167;52.164;10.530;2023-04-01T07:17:53;2.15;;;0.80;;
10244;SDS011;5167;52.164;10.530;2023-04-01T07:20:23;0.95;;;0.75;;
10244;SDS011;5167;52.164;10.530;2023-04-01T07:23:04;0.70;;;0.70;;
10244;SDS011;5167;52.164;10.530;2023-04-01T07:25:48;1.17;;;0.80;;
10244;SDS011;5167;52.164;10.530;2023-04-01T07:28:18;1.13;;;1.02;;
10244;SDS011;5167;52.164;10.530;2023-04-01T07:30:50;1.70;;;0.77;;
10244;SDS011;5167;52.164;10.530;2023-04-01T07:33:33;1.45;;;0.93;;
10244;SDS011;5167;52.164;10.530;2023-04-01T07:36:22;1.10;;;0.80;;
10244;SDS011;5167;52.164;10.530;2023-04-01T07:39:15;1.98;;;0.80;;
10244;SDS011;5167;52.164;10.530;2023-04-01T07:42:22;1.42;;;0.55;;
10244;SDS011;5167;52.164;10.530;2023-04-01T07:45:13;2.38;;;1.00;;
10244;SDS011;5167;52.164;10.530;2023-04-01T07:48:00;3.17;;;0.80;;
10244;SDS011;5167;52.164;10.530;2023-04-01T07:50:31;0.93;;;0.70;;
10244;SDS011;5167;52.164;10.530;2023-04-01T07:53:16;0.80;;;0.80;;
10244;SDS011;5167;52.164;10.530;2023-04-01T07:59:20;0.70;;;0.70;;
10244;SDS011;5167;52.164;10.530;2023-04-01T08:04:09;1.85;;;0.88;;
10244;SDS011;5167;52.164;10.530;2023-04-01T08:09:40;2.45;;;0.80;;
10244;SDS011;5167;52.164;10.530;2023-04-01T08:14:42;0.70;;;0.70;;
10244;SDS011;5167;52.164;10.530;2023-04-01T08:17:26;0.70;;;0.70;;
10244;SDS011;5167;52.164;10.530;2023-04-01T08:23:12;0.68;;;0.60;;
10244;SDS011;5167;52.164;10.530;2023-04-01T08:25:51;1.20;;;0.90;;
10244;SDS011;5167;52.164;10.530;2023-04-01T08:28:27;0.50;;;0.50;;
10244;SDS011;5167;52.164;10.530;2023-04-01T08:31:11;0.55;;;0.55;;
10244;SDS011;5167;52.164;10.530;2023-04-01T08:33:44;0.80;;;0.80;;
10244;SDS011;5167;52.164;10.530;2023-04-01T08:38:44;1.38;;;0.80;;
10244;SDS011;5167;52.164;10.530;2023-04-01T08:47:23;0.68;;;0.68;;
10244;SDS011;5167;52.164;10.530;2023-04-01T08:49:56;0.50;;;0.50;;
10244;SDS011;5167;52.164;10.530;2023-04-01T08:52:45;1.23;;;0.50;;
10244;SDS011;5167;52.164;10.530;2023-04-01T08:58:02;0.43;;;0.40;;
10244;SDS011;5167;52.164;10.530;2023-04-01T09:00:44;0.60;;;0.60;;
10244;SDS011;5167;52.164;10.530;2023-04-01T09:03:41;0.40;;;0.40;;
10244;SDS011;5167;52.164;10.530;2023-04-01T09:06:24;1.10;;;0.68;;
10244;SDS011;5167;52.164;10.530;2023-04-01T09:14:17;0.50;;;0.50;;
10244;SDS011;5167;52.164;10.530;2023-04-01T09:29:13;0.60;;;0.60;;
10244;SDS011;5167;52.164;10.530;2023-04-01T09:32:10;0.93;;;0.50;;
10244;SDS011;5167;52.164;10.530;2023-04-01T09:34:52;0.40;;;0.40;;
10244;SDS011;5167;52.164;10.530;2023-04-01T09:40:11;1.65;;;0.50;;
10244;SDS011;5167;52.164;10.530;2023-04-01T09:42:49;0.47;;;0.47;;
10244;SDS011;5167;52.164;10.530;2023-04-01T09:45:47;0.45;;;0.45;;
10244;SDS011;5167;52.164;10.530;2023-04-01T09:56:48;0.50;;;0.50;;
10244;SDS011;5167;52.164;10.530;2023-04-01T09:59:25;0.50;;;0.50;;
10244;SDS011;5167;52.164;10.530;2023-04-01T10:02:07;0.40;;;0.40;;
10244;SDS011;5167;52.164;10.530;2023-04-01T10:19:03;1.45;;;1.35;;
10244;SDS011;5167;52.164;10.530;2023-04-01T10:21:55;1.02;;;0.70;;
10244;SDS011;5167;52.164;10.530;2023-04-01T10:24:52;0.60;;;0.60;;
10244;SDS011;5167;52.164;10.530;2023-04-01T10:33:27;2.55;;;0.93;;
10244;SDS011;5167;52.164;10.530;2023-04-01T10:47:32;1.75;;;0.90;;
10244;SDS011;5167;52.164;10.530;2023-04-01T10:53:55;0.90;;;0.63;;
10244;SDS011;5167;52.164;10.530;2023-04-01T10:59:13;2.83;;;0.60;;
10244;SDS011;5167;52.164;10.530;2023-04-01T11:08:11;0.88;;;0.70;;
10244;SDS011;5167;52.164;10.530;2023-04-01T11:11:09;0.52;;;0.50;;
10244;SDS011;5167;52.164;10.530;2023-04-01T11:25:18;0.30;;;0.30;;
10244;SDS011;5167;52.164;10.530;2023-04-01T11:33:40;0.70;;;0.50;;
10244;SDS011;5167;52.164;10.530;2023-04-01T11:39:24;0.40;;;0.40;;
10244;SDS011;5167;52.164;10.530;2023-04-01T11:45:01;0.40;;;0.40;;
10244;SDS011;5167;52.164;10.530;2023-04-01T11:50:47;0.55;;;0.47;;
10244;SDS011;5167;52.164;10.530;2023-04-01T11:53:47;1.50;;;0.63;;
10244;SDS011;5167;52.164;10.530;2023-04-01T11:56:30;1.30;;;0.35;;
10244;SDS011;5167;52.164;10.530;2023-04-01T12:19:01;0.47;;;0.47;;
10244;SDS011;5167;52.164;10.530;2023-04-01T12:21:37;0.50;;;0.50;;
10244;SDS011;5167;52.164;10.530;2023-04-01T12:24:42;0.65;;;0.65;;
10244;SDS011;5167;52.164;10.530;2023-04-01T12:27:28;1.23;;;0.90;;
10244;SDS011;5167;52.164;10.530;2023-04-01T12:30:24;0.60;;;0.60;;
10244;SDS011;5167;52.164;10.530;2023-04-01T12:38:51;0.68;;;0.68;;
10244;SDS011;5167;52.164;10.530;2023-04-01T12:41:26;0.70;;;0.70;;
10244;SDS011;5167;52.164;10.530;2023-04-01T12:44:29;0.50;;;0.50;;
10244;SDS011;5167;52.164;10.530;2023-04-01T12:47:23;0.70;;;0.70;;
10244;SDS011;5167;52.164;10.530;2023-04-01T12:50:13;0.50;;;0.50;;
10244;SDS011;5167;52.164;10.530;2023-04-01T12:53:03;0.38;;;0.38;;
10244;SDS011;5167;52.164;10.530;2023-04-01T12:55:46;0.75;;;0.75;;
10244;SDS011;5167;52.164;10.530;2023-04-01T13:01:30;1.05;;;0.70;;
10244;SDS011;5167;52.164;10.530;2023-04-01T13:04:29;0.82;;;0.50;;
10244;SDS011;5167;52.164;10.530;2023-04-01T13:07:22;0.52;;;0.50;;
10244;SDS011;5167;52.164;10.530;2023-04-01T13:13:00;0.40;;;0.40;;
10244;SDS011;5167;52.164;10.530;2023-04-01T13:18:17;0.80;;;0.80;;
10244;SDS011;5167;52.164;10.530;2023-04-01T13:29:35;0.60;;;0.50;;
10244;SDS011;5167;52.164;10.530;2023-04-01T13:32:16;0.68;;;0.68;;
10244;SDS011;5167;52.164;10.530;2023-04-01T13:35:02;0.70;;;0.55;;
10244;SDS011;5167;52.164;10.530;2023-04-01T13:43:15;0.88;;;0.65;;
10244;SDS011;5167;52.164;10.530;2023-04-01T13:54:00;0.80;;;0.80;;
10244;SDS011;5167;52.164;10.530;2023-04-01T13:59:28;0.55;;;0.50;;
10244;SDS011;5167;52.164;10.530;2023-04-01T14:02:29;0.70;;;0.70;;
10244;SDS011;5167;52.164;10.530;2023-04-01T14:13:50;0.60;;;0.60;;
10244;SDS011;5167;52.164;10.530;2023-04-01T14:19:50;1.17;;;1.17;;
10244;SDS011;5167;52.164;10.530;2023-04-01T14:28:20;2.58;;;1.30;;
10244;SDS011;5167;52.164;10.530;2023-04-01T14:36:30;1.25;;;1.23;;
10244;SDS011;5167;52.164;10.530;2023-04-01T14:39:20;1.55;;;1.23;;
10244;SDS011;5167;52.164;10.530;2023-04-01T14:42:14;2.10;;;1.30;;
10244;SDS011;5167;52.164;10.530;2023-04-01T14:50:45;0.85;;;0.85;;
10244;SDS011;5167;52.164;10.530;2023-04-01T14:53:12;1.00;;;1.00;;
10244;SDS011;5167;52.164;10.530;2023-04-01T14:55:53;1.00;;;1.00;;
10244;SDS011;5167;52.164;10.530;2023-04-01T14:58:47;1.40;;;1.30;;
10244;SDS011;5167;52.164;10.530;2023-04-01T15:03:54;1.50;;;1.40;;
10244;SDS011;5167;52.164;10.530;2023-04-01T15:09:24;1.45;;;1.35;;
10244;SDS011;5167;52.164;10.530;2023-04-01T15:15:04;1.52;;;1.42;;
10244;SDS011;5167;52.164;10.530;2023-04-01T15:17:40;1.58;;;1.48;;
10244;SDS011;5167;52.164;10.530;2023-04-01T15:20:40;1.75;;;1.63;;
10244;SDS011;5167;52.164;10.530;2023-04-01T15:26:21;1.50;;;1.40;;
10244;SDS011;5167;52.164;10.530;2023-04-01T15:29:13;1.83;;;1.70;;
10244;SDS011;5167;52.164;10.530;2023-04-01T15:35:21;2.10;;;2.00;;
10244;SDS011;5167;52.164;10.530;2023-04-01T15:37:54;2.15;;;2.03;;
10244;SDS011;5167;52.164;10.530;2023-04-01T15:48:55;3.47;;;1.52;;
10244;SDS011;5167;52.164;10.530;2023-04-01T16:00:28;1.33;;;1.33;;
10244;SDS011;5167;52.164;10.530;2023-04-01T16:05:37;1.83;;;1.40;;
10244;SDS011;5167;52.164;10.530;2023-04-01T16:08:37;1.60;;;1.50;;
10244;SDS011;5167;52.164;10.530;2023-04-01T16:11:28;1.77;;;1.57;;
10244;SDS011;5167;52.164;10.530;2023-04-01T16:14:11;1.57;;;1.47;;
10244;SDS011;5167;52.164;10.530;2023-04-01T16:16:46;1.67;;;1.52;;
10244;SDS011;5167;52.164;10.530;2023-04-01T16:22:23;3.07;;;1.30;;
10244;SDS011;5167;52.164;10.530;2023-04-01T16:25:14;1.20;;;1.20;;
10244;SDS011;5167;52.164;10.530;2023-04-01T16:30:35;1.40;;;1.30;;
10244;SDS011;5167;52.164;10.530;2023-04-01T16:36:33;1.30;;;1.20;;
10244;SDS011;5167;52.164;10.530;2023-04-01T16:41:56;2.43;;;1.80;;
10244;SDS011;5167;52.164;10.530;2023-04-01T16:47:46;1.20;;;1.20;;
10244;SDS011;5167;52.164;10.530;2023-04-01T16:50:19;1.50;;;1.40;;
10244;SDS011;5167;52.164;10.530;2023-04-01T16:53:08;1.80;;;1.70;;
10244;SDS011;5167;52.164;10.530;2023-04-01T16:58:18;1.47;;;1.37;;
10244;SDS011;5167;52.164;10.530;2023-04-01T17:01:39;1.40;;;1.30;;
10244;SDS011;5167;52.164;10.530;2023-04-01T17:03:49;1.60;;;1.50;;
10244;SDS011;5167;52.164;10.530;2023-04-01T17:06:31;1.53;;;1.43;;
10244;SDS011;5167;52.164;10.530;2023-04-01T17:14:59;1.60;;;1.50;;
10244;SDS011;5167;52.164;10.530;2023-04-01T17:20:40;1.80;;;1.70;;
10244;SDS011;5167;52.164;10.530;2023-04-01T17:23:28;1.70;;;1.60;;
10244;SDS011;5167;52.164;10.530;2023-04-01T17:26:25;1.47;;;1.37;;
10244;SDS011;5167;52.164;10.530;2023-04-01T17:31:53;1.20;;;1.20;;
10244;SDS011;5167;52.164;10.530;2023-04-01T17:38:04;1.40;;;1.30;;
10244;SDS011;5167;52.164;10.530;2023-04-01T17:46:00;1.70;;;1.60;;
10244;SDS011;5167;52.164;10.530;2023-04-01T17:51:31;1.30;;;1.30;;
10244;SDS011;5167;52.164;10.530;2023-04-01T17:56:47;1.20;;;1.20;;
10244;SDS011;5167;52.164;10.530;2023-04-01T17:59:21;1.40;;;1.30;;
10244;SDS011;5167;52.164;10.530;2023-04-01T18:02:00;1.70;;;1.40;;
10244;SDS011;5167;52.164;10.530;2023-04-01T18:04:56;2.60;;;1.30;;
10244;SDS011;5167;52.164;10.530;2023-04-01T18:08:02;1.10;;;1.10;;
10244;SDS011;5167;52.164;10.530;2023-04-01T18:11:04;1.40;;;1.30;;
10244;SDS011;5167;52.164;10.530;2023-04-01T18:13:52;1.13;;;1.13;;
10244;SDS011;5167;52.164;10.530;2023-04-01T18:16:54;1.20;;;1.20;;
10244;SDS011;5167;52.164;10.530;2023-04-01T18:19:35;1.47;;;1.37;;
10244;SDS011;5167;52.164;10.530;2023-04-01T18:22:26;1.57;;;1.33;;
10244;SDS011;5167;52.164;10.530;2023-04-01T18:27:40;1.50;;;1.33;;
10244;SDS011;5167;52.164;10.530;2023-04-01T18:30:26;1.30;;;1.30;;
10244;SDS011;5167;52.164;10.530;2023-04-01T18:33:06;2.10;;;1.40;;
10244;SDS011;5167;52.164;10.530;2023-04-01T18:36:09;1.67;;;1.57;;
10244;SDS011;5167;52.164;10.530;2023-04-01T18:39:00;1.70;;;1.20;;
10244;SDS011;5167;52.164;10.530;2023-04-01T18:49:46;1.47;;;1.37;;
10244;SDS011;5167;52.164;10.530;2023-04-01T18:52:37;1.63;;;1.53;;
10244;SDS011;5167;52.164;10.530;2023-04-01T18:58:07;1.17;;;1.07;;
10244;SDS011;5167;52.164;10.530;2023-04-01T19:01:00;1.40;;;1.30;;
10244;SDS011;5167;52.164;10.530;2023-04-01T19:03:57;1.33;;;1.30;;
10244;SDS011;5167;52.164;10.530;2023-04-01T19:09:11;2.00;;;1.50;;
10244;SDS011;5167;52.164;10.530;2023-04-01T19:11:47;1.20;;;1.20;;
10244;SDS011;5167;52.164;10.530;2023-04-01T19:20:47;1.50;;;1.40;;
10244;SDS011;5167;52.164;10.530;2023-04-01T19:26:00;3.43;;;1.60;;
10244;SDS011;5167;52.164;10.530;2023-04-01T19:32:08;1.57;;;1.50;;
10244;SDS011;5167;52.164;10.530;2023-04-01T19:37:24;2.43;;;1.73;;
10244;SDS011;5167;52.164;10.530;2023-04-01T19:42:53;2.27;;;1.37;;
10244;SDS011;5167;52.164;10.530;2023-04-01T19:51:06;1.47;;;1.37;;
10244;SDS011;5167;52.164;10.530;2023-04-01T19:54:01;2.13;;;1.93;;
10244;SDS011;5167;52.164;10.530;2023-04-01T19:56:42;1.90;;;1.77;;
10244;SDS011;5167;52.164;10.530;2023-04-01T19:59:16;1.97;;;1.80;;
10244;SDS011;5167;52.164;10.530;2023-04-01T20:07:15;2.00;;;1.90;;
10244;SDS011;5167;52.164;10.530;2023-04-01T20:10:08;5.27;;;1.87;;
10244;SDS011;5167;52.164;10.530;2023-04-01T20:12:52;2.07;;;1.77;;
10244;SDS011;5167;52.164;10.530;2023-04-01T20:15:35;2.10;;;1.83;;
10244;SDS011;5167;52.164;10.530;2023-04-01T20:18:15;2.00;;;1.80;;
10244;SDS011;5167;52.164;10.530;2023-04-01T20:20:59;1.90;;;1.70;;
10244;SDS011;5167;52.164;10.530;2023-04-01T20:23:38;2.90;;;2.30;;
10244;SDS011;5167;52.164;10.530;2023-04-01T20:26:13;2.20;;;2.00;;
10244;SDS011;5167;52.164;10.530;2023-04-01T20:31:31;7.27;;;1.97;;
10244;SDS011;5167;52.164;10.530;2023-04-01T20:39:45;1.97;;;1.87;;
10244;SDS011;5167;52.164;10.530;2023-04-01T20:45:27;2.17;;;1.90;;
10244;SDS011;5167;52.164;10.530;2023-04-01T20:48:44;2.30;;;2.10;;
10244;SDS011;5167;52.164;10.530;2023-04-01T20:51:07;2.30;;;2.00;;
10244;SDS011;5167;52.164;10.530;2023-04-01T20:57:44;2.20;;;2.10;;
10244;SDS011;5167;52.164;10.530;2023-04-01T21:02:34;5.63;;;2.17;;
10244;SDS011;5167;52.164;10.530;2023-04-01T21:05:44;2.30;;;1.87;;
10244;SDS011;5167;52.164;10.530;2023-04-01T21:09:02;3.67;;;2.47;;
10244;SDS011;5167;52.164;10.530;2023-04-01T21:17:33;2.80;;;2.40;;
10244;SDS011;5167;52.164;10.530;2023-04-01T21:20:12;2.40;;;2.20;;
10244;SDS011;5167;52.164;10.530;2023-04-01T21:22:51;2.50;;;2.30;;
10244;SDS011;5167;52.164;10.530;2023-04-01T21:33:50;2.53;;;2.23;;
10244;SDS011;5167;52.164;10.530;2023-04-01T21:39:41;4.20;;;2.10;;
10244;SDS011;5167;52.164;10.530;2023-04-01T21:47:42;3.43;;;2.13;;
10244;SDS011;5167;52.164;10.530;2023-04-01T22:07:25;4.13;;;2.70;;
10244;SDS011;5167;52.164;10.530;2023-04-01T22:10:21;4.83;;;3.23;;
10244;SDS011;5167;52.164;10.530;2023-04-01T22:12:58;3.40;;;3.10;;
10244;SDS011;5167;52.164;10.530;2023-04-01T22:18:25;5.67;;;3.20;;
10244;SDS011;5167;52.164;10.530;2023-04-01T22:23:51;7.17;;;4.50;;
10244;SDS011;5167;52.164;10.530;2023-04-01T22:29:07;5.80;;;4.10;;
10244;SDS011;5167;52.164;10.530;2023-04-01T22:37:15;4.53;;;3.10;;
10244;SDS011;5167;52.164;10.530;2023-04-01T22:40:14;5.20;;;2.87;;
10244;SDS011;5167;52.164;10.530;2023-04-01T22:42:46;3.33;;;2.87;;
10244;SDS011;5167;52.164;10.530;2023-04-01T22:48:20;6.47;;;3.93;;
10244;SDS011;5167;52.164;10.530;2023-04-01T22:51:00;3.87;;;3.20;;
10244;SDS011;5167;52.164;10.530;2023-04-01T22:54:02;6.87;;;4.47;;
10244;SDS011;5167;52.164;10.530;2023-04-01T22:56:47;7.97;;;4.43;;
10244;SDS011;5167;52.164;10.530;2023-04-01T23:02:15;5.30;;;3.70;;
10244;SDS011;5167;52.164;10.530;2023-04-01T23:04:58;8.00;;;4.40;;
10244;SDS011;5167;52.164;10.530;2023-04-01T23:10:21;4.87;;;3.90;;
10244;SDS011;5167;52.164;10.530;2023-04-01T23:13:03;5.80;;;4.37;;
10244;SDS011;5167;52.164;10.530;2023-04-01T23:15:35;10.33;;;5.50;;
10244;SDS011;5167;52.164;10.530;2023-04-01T23:18:03;6.80;;;4.87;;
10244;SDS011;5167;52.164;10.530;2023-04-01T23:20:47;8.67;;;5.27;;
10244;SDS011;5167;52.164;10.530;2023-04-01T23:26:47;5.33;;;4.30;;
10244;SDS011;5167;52.164;10.530;2023-04-01T23:29:21;10.17;;;6.40;;
10244;SDS011;5167;52.164;10.530;2023-04-01T23:31:48;7.00;;;5.27;;
10244;SDS011;5167;52.164;10.530;2023-04-01T23:34:26;9.07;;;6.13;;